Time;durP1;ratioP1;P1;durP2;ratioP2;P2;SDS_P1;SDS_P2;PMS_P1;PMS_P2;Temp;Humidity;BMP_temperature;BMP_pressure;BME280_temperature;BME280_humidity;BME280_pressure;Samples;Min_cycle;Max_cycle;Signal;HPM_P1;HPM_P2
2023/08/19 00:00:13;;;;;;;27.35;20.45;;;;;;;20.21;100.00;101313.53;10399525;28;20072;-65
2023/08/19 00:05:14;;;;;;;27.20;20.92;;;;;;;20.16;100.00;101313.63;10438765;28;20519;-65
2023/08/19 00:10:14;;;;;;;29.63;20.75;;;;;;;20.08;100.00;101300.38;10418070;28;20042;-65
2023/08/19 00:15:15;;;;;;;26.10;20.88;;;;;;;20.09;100.00;101297.28;10422761;28;20045;-65
2023/08/19 00:20:15;;;;;;;30.77;22.35;;;;;;;19.69;100.00;101242.94;10477503;28;20040;-65
2023/08/19 00:25:16;;;;;;;29.60;21.88;;;;;;;20.00;100.00;101284.31;10476475;28;20029;-65
2023/08/19 00:30:16;;;;;;;29.95;21.65;;;;;;;20.00;100.00;101287.94;10476539;28;20037;-65
2023/08/19 00:35:17;;;;;;;33.95;22.85;;;;;;;19.95;100.00;101280.47;10479521;28;20074;-65
2023/08/19 00:40:18;;;;;;;28.95;22.13;;;;;;;19.87;100.00;101277.56;10481084;28;20079;-65
2023/08/19 00:45:18;;;;;;;34.35;23.30;;;;;;;19.89;100.00;101270.53;10471238;28;20057;-65
2023/08/19 00:50:19;;;;;;;29.38;22.70;;;;;;;19.85;100.00;101263.91;10472725;28;20108;-65
2023/08/19 00:55:19;;;;;;;29.90;23.30;;;;;;;19.76;100.00;101251.75;10471406;28;20033;-65
2023/08/19 01:00:20;;;;;;;31.77;23.80;;;;;;;19.74;100.00;101256.81;10473631;28;20045;-65
2023/08/19 01:05:20;;;;;;;37.65;25.30;;;;;;;20.27;100.00;101256.38;10461644;28;20098;-63
2023/08/19 01:10:26;;;;;;;34.53;25.75;;;;;;;19.81;100.00;101250.84;10474756;28;20062;-65
2023/08/19 01:15:32;;;;;;;33.70;23.08;;;;;;;19.73;100.00;101257.97;10437364;28;20091;-65
2023/08/19 01:20:33;;;;;;;33.30;25.05;;;;;;;19.65;100.00;101258.66;10475171;28;20040;-65
2023/08/19 01:25:33;;;;;;;34.40;24.13;;;;;;;19.59;100.00;101245.91;10471875;28;20048;-65
2023/08/19 01:30:34;;;;;;;37.55;25.70;;;;;;;19.49;100.00;101256.13;10454012;28;20037;-65
2023/08/19 01:35:37;;;;;;;35.97;27.05;;;;;;;19.45;100.00;101255.09;10475184;28;20122;-65
2023/08/19 01:40:37;;;;;;;35.50;25.02;;;;;;;19.38;100.00;101254.63;10473032;28;20036;-65
2023/08/19 01:45:38;;;;;;;41.00;26.92;;;;;;;19.33;100.00;101249.97;10473855;28;20043;-65
2023/08/19 01:50:39;;;;;;;38.05;26.80;;;;;;;19.30;100.00;101255.31;10475927;28;20124;-65
2023/08/19 01:55:39;;;;;;;40.10;26.42;;;;;;;19.28;100.00;101263.16;10476294;28;20814;-65
2023/08/19 02:00:40;;;;;;;40.85;27.10;;;;;;;19.20;100.00;101247.13;10477598;28;20481;-65
2023/08/19 02:05:40;;;;;;;43.22;28.73;;;;;;;19.23;100.00;101252.09;10478322;28;20048;-65
2023/08/19 02:10:42;;;;;;;42.03;29.38;;;;;;;19.24;100.00;101259.31;10483188;28;20037;-65
2023/08/19 02:15:43;;;;;;;42.83;29.52;;;;;;;19.24;100.00;101259.31;10486630;28;20071;-65
2023/08/19 02:20:49;;;;;;;48.63;30.98;;;;;;;19.23;100.00;101264.09;10450407;28;20043;-65
2023/08/19 02:25:52;;;;;;;45.42;31.00;;;;;;;19.25;100.00;101256.25;10494246;28;20095;-65
2023/08/19 02:30:52;;;;;;;41.55;28.80;;;;;;;19.26;100.00;101240.31;10471128;28;20719;-65
2023/08/19 02:35:52;;;;;;;44.95;31.02;;;;;;;19.23;100.00;101240.94;10467277;28;20033;-64
2023/08/19 02:40:53;;;;;;;45.53;30.35;;;;;;;19.25;100.00;101239.50;10475379;28;20032;-65
2023/08/19 02:45:53;;;;;;;50.92;30.60;;;;;;;19.22;100.00;101236.47;10483061;28;20037;-65
2023/08/19 02:50:54;;;;;;;45.80;29.77;;;;;;;19.21;100.00;101237.63;10477212;28;20048;-65
2023/08/19 02:55:55;;;;;;;52.63;31.90;;;;;;;19.17;100.00;101234.59;10479911;28;20392;-65
2023/08/19 03:00:55;;;;;;;47.05;31.58;;;;;;;19.15;100.00;101229.31;10455690;28;20044;-64
2023/08/19 03:05:59;;;;;;;44.05;29.08;;;;;;;19.12;100.00;101223.50;10477443;28;20044;-64
2023/08/19 03:11:00;;;;;;;44.03;30.17;;;;;;;19.12;100.00;101224.34;10480162;28;20043;-65
2023/08/19 03:16:00;;;;;;;46.53;31.20;;;;;;;19.08;100.00;101219.66;10467887;28;20047;-65
2023/08/19 03:21:01;;;;;;;46.72;29.85;;;;;;;19.05;100.00;101209.94;10453026;28;20036;-65
2023/08/19 03:26:02;;;;;;;48.78;31.35;;;;;;;19.03;100.00;101201.03;10475692;28;20048;-65
2023/08/19 03:31:09;;;;;;;45.35;31.17;;;;;;;18.99;100.00;101205.56;10466194;28;20033;-65
2023/08/19 03:36:10;;;;;;;50.30;33.42;;;;;;;18.98;100.00;101198.34;10482724;28;20109;-64
2023/08/19 03:41:11;;;;;;;50.00;32.38;;;;;;;18.95;100.00;101190.56;10476965;28;20037;-65
2023/08/19 03:46:12;;;;;;;51.22;32.58;;;;;;;18.90;100.00;101188.69;10477616;28;20033;-65
2023/08/19 03:51:12;;;;;;;49.45;31.85;;;;;;;18.90;100.00;101196.25;10462146;28;20033;-65
2023/08/19 03:56:13;;;;;;;46.55;32.05;;;;;;;18.89;100.00;101189.00;10479750;28;20040;-65
2023/08/19 04:01:13;;;;;;;50.35;33.67;;;;;;;18.88;100.00;101179.81;10474354;28;20060;-64
2023/08/19 04:06:14;;;;;;;48.92;31.63;;;;;;;18.84;100.00;101191.88;10491079;28;20037;-65
2023/08/19 04:11:14;;;;;;;50.50;32.38;;;;;;;18.82;100.00;101196.94;10472712;28;20053;-65
2023/08/19 04:16:15;;;;;;;52.65;32.15;;;;;;;18.82;100.00;101202.50;10472210;28;20098;-65
2023/08/19 04:21:15;;;;;;;50.00;33.88;;;;;;;18.81;100.00;101189.69;10471295;28;20076;-65
2023/08/19 04:26:16;;;;;;;47.10;30.38;;;;;;;18.76;100.00;101188.59;10474914;28;20032;-65
2023/08/19 04:31:16;;;;;;;52.47;33.20;;;;;;;18.81;100.00;101189.69;10463417;28;20115;-67
2023/08/19 04:36:17;;;;;;;49.80;31.20;;;;;;;18.81;100.00;101189.69;10479549;28;20067;-65
2023/08/19 04:41:17;;;;;;;51.47;31.35;;;;;;;18.85;100.00;101185.16;10472423;28;20105;-66
2023/08/19 04:46:18;;;;;;;44.55;30.27;;;;;;;18.94;100.00;101191.72;10492129;28;20587;-65
2023/08/19 04:51:18;;;;;;;43.53;29.65;;;;;;;19.02;100.00;101193.00;10477671;28;20037;-66
2023/08/19 04:56:19;;;;;;;43.28;30.10;;;;;;;19.06;100.00;101188.44;10480555;28;20086;-66
2023/08/19 05:01:20;;;;;;;43.47;29.85;;;;;;;19.17;100.00;101203.91;10473297;28;20036;-66
2023/08/19 05:06:21;;;;;;;41.80;27.05;;;;;;;19.22;100.00;101191.81;10454007;28;20037;-65
2023/08/19 05:11:21;;;;;;;40.72;28.10;;;;;;;19.36;100.00;101195.47;10471779;28;20084;-63
2023/08/19 05:16:22;;;;;;;39.15;27.70;;;;;;;19.47;100.00;101199.75;10477699;28;20137;-65
2023/08/19 05:21:22;;;;;;;37.40;26.05;;;;;;;19.63;100.00;101199.47;10488004;28;20041;-65
2023/08/19 05:26:23;;;;;;;32.67;24.45;;;;;;;19.73;100.00;101193.72;10460252;28;20067;-64
2023/08/19 05:31:23;;;;;;;33.03;23.50;;;;;;;19.82;100.00;101200.25;10465983;28;20063;-65
2023/08/19 05:36:24;;;;;;;29.88;21.17;;;;;;;19.94;100.00;101206.16;10480927;28;20033;-65
2023/08/19 05:41:25;;;;;;;29.85;20.70;;;;;;;20.08;100.00;101206.16;10476278;28;20060;-66
2023/08/19 05:46:25;;;;;;;26.35;19.42;;;;;;;20.27;100.00;101214.44;10480457;28;20543;-65
2023/08/19 05:51:26;;;;;;;28.88;20.58;;;;;;;20.49;100.00;101216.50;10465655;28;20033;-66
2023/08/19 05:56:26;;;;;;;26.88;18.52;;;;;;;20.75;100.00;101216.78;10479556;28;20037;-65
2023/08/19 06:01:27;;;;;;;22.05;16.95;;;;;;;20.95;100.00;101223.84;10481743;28;20041;-65
2023/08/19 06:06:27;;;;;;;22.90;16.67;;;;;;;21.18;100.00;101218.28;10487222;28;20048;-66
2023/08/19 06:11:28;;;;;;;19.80;15.88;;;;;;;21.34;100.00;101216.75;10481269;28;20028;-65
2023/08/19 06:16:28;;;;;;;18.83;14.38;;;;;;;21.41;100.00;101216.28;10477960;28;20512;-66
2023/08/19 06:21:29;;;;;;;19.17;15.43;;;;;;;21.40;100.00;101216.63;10479743;28;20053;-66
2023/08/19 06:26:29;;;;;;;21.25;15.02;;;;;;;21.71;100.00;101233.50;10478053;28;20072;-66
2023/08/19 06:31:31;;;;;;;19.55;14.07;;;;;;;21.99;100.00;101239.72;10482764;28;20459;-65
2023/08/19 06:36:31;;;;;;;18.38;13.43;;;;;;;22.08;100.00;101222.94;10480416;28;20033;-65
2023/08/19 06:41:33;;;;;;;16.05;12.73;;;;;;;22.23;100.00;101239.34;10456964;28;20570;-66
2023/08/19 06:46:34;;;;;;;16.27;13.07;;;;;;;22.22;100.00;101237.69;10479255;28;20087;-66
2023/08/19 06:51:34;;;;;;;15.80;12.27;;;;;;;22.23;100.00;101244.97;10476291;28;20067;-67
2023/08/19 06:56:44;;;;;;;16.77;12.98;;;;;;;22.24;100.00;101252.25;10462509;28;20479;-66
2023/08/19 07:01:47;;;;;;;14.00;12.20;;;;;;;22.21;100.00;101250.03;10461147;28;20093;-67
2023/08/19 07:06:48;;;;;;;16.20;12.43;;;;;;;22.14;100.00;101244.09;10410642;28;20045;-66
2023/08/19 07:11:50;;;;;;;13.88;11.95;;;;;;;22.11;100.00;101247.53;10421333;28;20037;-65
2023/08/19 07:16:51;;;;;;;16.50;12.55;;;;;;;22.00;100.00;101247.00;10420746;28;20044;-66
2023/08/19 07:21:51;;;;;;;16.33;12.63;;;;;;;21.90;100.00;101253.69;10399650;28;20045;-66
2023/08/19 07:26:52;;;;;;;16.58;13.10;;;;;;;21.70;100.00;101210.22;10401082;28;20029;-66
2023/08/19 07:31:52;;;;;;;15.27;11.80;;;;;;;22.02;100.00;101246.69;10421549;28;20033;-66
2023/08/19 07:36:53;;;;;;;16.73;11.50;;;;;;;22.07;100.00;101252.94;10419705;28;20067;-65
2023/08/19 07:41:53;;;;;;;14.43;12.10;;;;;;;22.10;100.00;101248.69;10422856;28;20105;-66
2023/08/19 07:46:54;;;;;;;14.38;11.35;;;;;;;22.18;100.00;101250.72;10418388;28;20457;-66
2023/08/19 07:51:54;;;;;;;13.95;11.45;;;;;;;22.31;100.00;101261.00;10432089;28;20037;-66
2023/08/19 07:56:57;;;;;;;13.02;10.35;;;;;;;22.50;100.00;101265.50;10437883;28;20102;-66
2023/08/19 08:01:58;;;;;;;11.65;9.63;;;;;;;22.71;100.00;101271.34;10451076;28;20051;-66
2023/08/19 08:06:58;;;;;;;14.15;9.50;;;;;;;22.92;100.00;101277.13;10476090;28;20040;-66
2023/08/19 08:11:59;;;;;;;12.48;8.60;;;;;;;23.20;100.00;101282.50;10474545;28;20393;-66
2023/08/19 08:16:59;;;;;;;9.77;8.18;;;;;;;23.44;100.00;101291.25;10478030;28;20049;-67
2023/08/19 08:22:00;;;;;;;12.75;8.55;;;;;;;23.68;100.00;101287.88;10470703;28;20037;-67
2023/08/19 08:27:01;;;;;;;8.60;7.32;;;;;;;23.83;100.00;101285.75;10478749;28;20032;-66
2023/08/19 08:32:01;;;;;;;8.07;6.28;;;;;;;23.95;100.00;101286.69;10473802;28;20041;-67
2023/08/19 08:37:02;;;;;;;10.18;6.75;;;;;;;24.09;100.00;101274.41;10476860;28;20071;-67
2023/08/19 08:42:02;;;;;;;9.75;7.50;;;;;;;24.29;100.00;101282.13;10477333;28;20048;-68
2023/08/19 08:47:03;;;;;;;10.35;6.95;;;;;;;24.47;100.00;101279.22;10471621;28;20033;-67
2023/08/19 08:52:04;;;;;;;9.57;6.20;;;;;;;24.67;100.00;101250.31;10486601;28;20041;-67
2023/08/19 08:57:04;;;;;;;9.10;6.22;;;;;;;24.73;100.00;101263.03;10462176;28;20043;-66
2023/08/19 09:02:05;;;;;;;8.32;6.38;;;;;;;24.92;100.00;101256.09;10477155;28;20252;-66
2023/08/19 09:07:10;;;;;;;13.90;6.55;;;;;;;25.22;100.00;101247.59;10467093;28;20040;-68
2023/08/19 09:12:11;;;;;;;7.47;5.32;;;;;;;25.53;100.00;101239.50;10474244;28;20062;-66
2023/08/19 09:17:12;;;;;;;6.78;5.15;;;;;;;25.94;100.00;101251.88;10463931;28;20040;-67
2023/08/19 09:22:15;;;;;;;7.45;5.15;;;;;;;26.30;100.00;101253.06;10473472;28;20041;-66
2023/08/19 09:27:34;;;;;;;7.28;4.55;;;;;;;26.76;100.00;101250.91;10482618;28;20051;-67
2023/08/19 09:32:35;;;;;;;5.97;4.80;;;;;;;26.98;100.00;101252.41;10461532;28;20045;-67
2023/08/19 09:37:36;;;;;;;5.15;4.60;;;;;;;27.27;100.00;101249.66;10456172;28;20049;-67
2023/08/19 09:42:40;;;;;;;8.27;4.38;;;;;;;27.25;100.00;101254.84;10441316;28;20049;-67
2023/08/19 09:47:46;;;;;;;4.63;4.10;;;;;;;27.18;100.00;101259.06;10478929;28;20076;-68
2023/08/19 09:52:56;;;;;;;5.20;4.65;;;;;;;27.28;100.00;101269.06;10462095;28;20441;-67
2023/08/19 09:57:57;;;;;;;8.77;4.35;;;;;;;27.42;100.00;101284.81;10434809;28;20053;-65
2023/08/19 10:02:58;;;;;;;7.28;5.07;;;;;;;27.36;100.00;101281.41;10417887;28;20052;-66
2023/08/19 10:08:03;;;;;;;6.93;4.90;;;;;;;27.18;100.00;101281.69;10435323;28;20041;-66
2023/08/19 10:13:04;;;;;;;6.38;4.82;;;;;;;27.26;100.00;101290.38;10459090;28;20050;-66
2023/08/19 10:18:09;;;;;;;7.70;4.20;;;;;;;27.40;100.00;101271.03;10460312;28;20061;-67
2023/08/19 10:23:10;;;;;;;5.90;4.47;;;;;;;27.64;100.00;101274.91;10433316;28;20113;-67
2023/08/19 10:28:18;;;;;;;7.55;4.88;;;;;;;27.86;100.00;101277.16;10434785;28;20041;-66
2023/08/19 10:33:33;;;;;;;9.77;4.95;;;;;;;28.06;100.00;101285.78;10414331;28;20037;-66
2023/08/19 10:38:46;;;;;;;8.45;4.45;;;;;;;28.35;100.00;101293.81;10439685;28;20045;-67
2023/08/19 10:43:53;;;;;;;5.40;4.18;;;;;;;28.84;100.00;101298.25;10429295;28;20148;-66
2023/08/19 10:48:54;;;;;;;6.20;3.92;;;;;;;29.32;100.00;101278.28;10475640;28;20033;-68
2023/08/19 10:54:06;;;;;;;7.15;4.75;;;;;;;28.98;100.00;101283.56;10459852;28;20037;-67
2023/08/19 10:59:06;;;;;;;9.32;4.40;;;;;;;28.71;100.00;101283.41;10457650;28;20648;-66
2023/08/19 11:04:07;;;;;;;6.93;5.03;;;;;;;28.45;100.00;101285.97;10438308;28;20040;-66
2023/08/19 11:09:07;;;;;;;12.48;7.38;;;;;;;27.90;100.00;101303.56;10439313;28;20064;-66
2023/08/19 11:14:08;;;;;;;10.48;5.22;;;;;;;27.22;100.00;101300.75;10447149;28;20049;-66
2023/08/19 11:19:08;;;;;;;10.32;6.18;;;;;;;26.33;100.00;101293.88;10433777;28;20432;-68
2023/08/19 11:24:09;;;;;;;9.75;7.63;;;;;;;25.90;100.00;101301.69;10432405;28;20037;-68
2023/08/19 11:29:10;;;;;;;9.25;7.22;;;;;;;25.62;100.00;101373.94;10431462;28;20047;-68
2023/08/19 11:34:11;;;;;;;9.70;6.72;;;;;;;25.43;100.00;101354.69;10436115;28;20513;-68
2023/08/19 11:39:12;;;;;;;11.02;7.30;;;;;;;25.15;100.00;101367.28;10409671;28;20045;-68
2023/08/19 11:44:12;;;;;;;10.48;6.75;;;;;;;25.07;100.00;101359.69;10431200;28;20142;-68
2023/08/19 11:49:13;;;;;;;8.30;6.30;;;;;;;25.05;100.00;101369.66;10438582;28;20038;-68
2023/08/19 11:54:14;;;;;;;10.77;7.15;;;;;;;25.03;100.00;101380.44;10413634;28;20120;-68
2023/08/19 11:59:14;;;;;;;11.48;6.97;;;;;;;25.42;100.00;101390.50;10422522;28;20037;-67
2023/08/19 12:04:15;;;;;;;10.40;7.65;;;;;;;26.11;100.00;101399.56;10423987;28;20093;-67
2023/08/19 12:09:20;;;;;;;11.18;7.57;;;;;;;26.70;100.00;101393.56;10420329;28;20048;-67
2023/08/19 12:14:20;;;;;;;15.90;7.13;;;;;;;27.02;100.00;101387.31;10415936;28;20072;-67
2023/08/19 12:19:21;;;;;;;9.82;7.20;;;;;;;26.83;100.00;101391.59;10420217;28;20103;-67
2023/08/19 12:24:22;;;;;;;9.52;7.82;;;;;;;26.39;100.00;101402.56;10421265;28;20037;-67
2023/08/19 12:29:24;;;;;;;10.88;6.95;;;;;;;26.34;100.00;101409.25;10423622;28;20061;-67
2023/08/19 12:34:24;;;;;;;11.23;7.85;;;;;;;26.55;100.00;101406.34;10433817;28;20041;-67
2023/08/19 12:39:25;;;;;;;10.15;8.40;;;;;;;26.67;100.00;101407.59;10434659;28;20052;-68
2023/08/19 12:44:25;;;;;;;18.08;9.95;;;;;;;26.89;100.00;101423.22;10423870;28;20052;-66
2023/08/19 12:49:26;;;;;;;11.25;8.48;;;;;;;26.99;100.00;101439.72;10421882;28;20033;-67
2023/08/19 12:54:26;;;;;;;12.65;9.48;;;;;;;27.30;100.00;101436.31;10431467;28;20052;-67
2023/08/19 12:59:27;;;;;;;12.85;10.63;;;;;;;27.47;100.00;101442.88;10415004;28;20048;-67
2023/08/19 13:04:27;;;;;;;14.25;11.10;;;;;;;27.33;100.00;101460.25;10428746;28;20037;-65
2023/08/19 13:09:28;;;;;;;15.27;11.50;;;;;;;27.10;100.00;101457.03;10438351;28;20053;-66
2023/08/19 13:14:28;;;;;;;17.13;10.52;;;;;;;27.17;100.00;101463.75;10429572;28;20057;-66
2023/08/19 13:19:29;;;;;;;18.30;13.52;;;;;;;27.01;100.00;101467.63;10433885;28;20497;-66
2023/08/19 13:24:29;;;;;;;17.73;13.63;;;;;;;26.76;100.00;101478.91;10429324;28;20060;-66
2023/08/19 13:29:30;;;;;;;22.27;18.40;;;;;;;26.08;100.00;101510.28;10435958;28;20048;-67
2023/08/19 13:34:30;;;;;;;31.73;25.42;;;;;;;25.44;100.00;101526.28;10432137;28;20041;-68
2023/08/19 13:39:31;;;;;;;39.42;27.05;;;;;;;25.21;100.00;101547.44;10428339;28;20060;-68
2023/08/19 13:44:31;;;;;;;41.58;31.00;;;;;;;24.83;100.00;101545.41;10433514;28;20050;-67
2023/08/19 13:49:32;;;;;;;46.38;31.50;;;;;;;24.57;100.00;101565.97;10431338;28;20099;-67
2023/08/19 13:54:34;;;;;;;35.05;24.77;;;;;;;24.22;100.00;101585.66;10432352;28;20044;-66
2023/08/19 13:59:34;;;;;;;30.15;20.58;;;;;;;24.05;100.00;101594.91;10439049;28;20044;-67
2023/08/19 14:04:35;;;;;;;29.27;18.38;;;;;;;23.93;100.00;101595.53;10439282;28;20056;-65
2023/08/19 14:09:35;;;;;;;33.65;17.60;;;;;;;23.78;100.00;101598.81;10442655;28;20041;-67
2023/08/19 14:14:37;;;;;;;17.95;12.13;;;;;;;23.55;100.00;101610.13;10417141;28;20049;-66
2023/08/19 14:19:37;;;;;;;15.15;9.52;;;;;;;23.56;100.00;101617.44;10437115;28;20049;-66
2023/08/19 14:24:37;;;;;;;13.15;7.60;;;;;;;23.70;100.00;101616.47;10442522;28;20385;-66
2023/08/19 14:29:38;;;;;;;9.63;5.78;;;;;;;23.77;100.00;101628.94;10429191;28;20485;-67
2023/08/19 14:34:38;;;;;;;7.88;5.30;;;;;;;23.72;100.00;101614.97;10440070;28;20044;-67
2023/08/19 14:39:39;;;;;;;8.93;4.57;;;;;;;23.79;100.00;101611.72;10437378;28;20056;-67
2023/08/19 14:44:39;;;;;;;9.13;4.65;;;;;;;23.76;100.00;101599.16;10437012;28;20037;-66
2023/08/19 14:49:40;;;;;;;7.28;3.72;;;;;;;23.74;100.00;101625.91;10436142;28;20048;-66
2023/08/19 14:54:40;;;;;;;8.80;4.13;;;;;;;23.66;100.00;101632.31;10438667;28;20041;-66
2023/08/19 14:59:41;;;;;;;7.35;3.65;;;;;;;23.47;100.00;101630.59;10441743;28;20053;-66
2023/08/19 15:04:41;;;;;;;6.70;4.25;;;;;;;23.37;100.00;101630.88;10435510;28;20037;-66
2023/08/19 15:09:42;;;;;;;9.07;3.55;;;;;;;23.40;100.00;101661.16;10434043;28;20037;-65
2023/08/19 15:14:42;;;;;;;5.00;3.45;;;;;;;23.41;100.00;101664.78;10439403;28;20033;-66
2023/08/19 15:19:42;;;;;;;8.93;3.97;;;;;;;23.31;100.00;101679.94;10434485;28;20052;-66
2023/08/19 15:24:43;;;;;;;7.50;4.03;;;;;;;23.24;100.00;101668.34;10441732;28;20036;-66
2023/08/19 15:29:43;;;;;;;5.47;3.85;;;;;;;23.13;100.00;101670.56;10432421;28;20037;-66
2023/08/19 15:34:44;;;;;;;6.55;4.20;;;;;;;23.09;100.00;101687.25;10438670;28;20037;-66
2023/08/19 15:39:44;;;;;;;7.72;4.47;;;;;;;22.92;100.00;101693.53;10433936;28;20045;-66
2023/08/19 15:44:45;;;;;;;6.75;3.78;;;;;;;22.77;100.00;101691.06;10439584;28;20059;-66
2023/08/19 15:49:45;;;;;;;9.98;4.25;;;;;;;22.63;100.00;101698.72;10438309;28;20053;-66
2023/08/19 15:54:46;;;;;;;12.52;4.15;;;;;;;22.58;100.00;101713.69;10436202;28;20049;-65
2023/08/19 15:59:47;;;;;;;7.68;4.55;;;;;;;22.55;100.00;101712.38;10434801;28;20060;-67
2023/08/19 16:04:47;;;;;;;10.10;4.47;;;;;;;22.59;100.00;101720.97;10435919;28;20116;-67
2023/08/19 16:09:48;;;;;;;8.60;4.13;;;;;;;22.46;100.00;101713.41;10438376;28;20037;-66
2023/08/19 16:14:48;;;;;;;8.30;4.32;;;;;;;22.58;100.00;101710.91;10428507;28;20067;-66
2023/08/19 16:19:49;;;;;;;13.60;5.13;;;;;;;22.68;100.00;101723.88;10428576;28;20041;-66
2023/08/19 16:24:49;;;;;;;10.55;4.50;;;;;;;23.03;100.00;101732.59;10423951;28;20052;-66
2023/08/19 16:29:51;;;;;;;10.00;5.05;;;;;;;23.32;100.00;101712.50;10429467;28;20048;-68
2023/08/19 16:34:53;;;;;;;10.13;4.18;;;;;;;23.44;100.00;101709.94;10420612;28;20037;-67
2023/08/19 16:39:53;;;;;;;5.28;2.92;;;;;;;23.62;100.00;101693.16;10426746;28;20591;-68
2023/08/19 16:44:53;;;;;;;5.60;2.35;;;;;;;23.62;100.00;101693.16;10425771;28;20166;-68
2023/08/19 16:49:54;;;;;;;5.68;2.78;;;;;;;23.64;100.00;101707.72;10428669;28;20044;-67
2023/08/19 16:54:55;;;;;;;6.72;3.63;;;;;;;23.52;100.00;101717.59;10430906;28;20051;-65
2023/08/19 16:59:55;;;;;;;6.68;3.55;;;;;;;23.38;100.00;101728.09;10425596;28;20048;-65
2023/08/19 17:04:56;;;;;;;7.70;4.18;;;;;;;23.28;100.00;101733.97;10428869;28;20552;-65
2023/08/19 17:09:56;;;;;;;12.40;7.28;;;;;;;23.26;100.00;101747.50;10429694;28;20030;-67
2023/08/19 17:14:57;;;;;;;13.57;7.65;;;;;;;23.16;100.00;101738.16;10425779;28;20053;-67
2023/08/19 17:19:57;;;;;;;12.43;8.00;;;;;;;22.97;100.00;101746.75;10423734;28;20051;-67
2023/08/19 17:24:58;;;;;;;13.00;8.13;;;;;;;22.73;100.00;101769.47;10401475;28;20247;-65
2023/08/19 17:29:59;;;;;;;13.52;8.38;;;;;;;22.52;100.00;101776.69;10422071;28;20065;-66
2023/08/19 17:34:59;;;;;;;14.95;10.05;;;;;;;22.41;100.00;101773.28;10463023;28;20039;-66
2023/08/19 17:40:00;;;;;;;13.55;9.75;;;;;;;22.30;100.00;101774.63;10479137;28;20056;-67
2023/08/19 17:45:00;;;;;;;13.88;8.55;;;;;;;22.18;100.00;101789.16;10479764;28;20108;-66
2023/08/19 17:50:01;;;;;;;12.43;8.07;;;;;;;22.13;100.00;101783.63;10490585;28;20447;-66
2023/08/19 17:55:02;;;;;;;12.27;7.22;;;;;;;22.01;100.00;101798.16;10464854;28;20041;-66
2023/08/19 18:00:03;;;;;;;5.97;3.95;;;;;;;21.74;100.00;101801.75;10486760;28;20044;-66
2023/08/19 18:05:04;;;;;;;5.85;2.80;;;;;;;21.40;100.00;101808.47;10483523;28;20480;-66
2023/08/19 18:10:05;;;;;;;4.90;2.35;;;;;;;21.07;100.00;101810.38;10486125;28;20127;-66
2023/08/19 18:15:06;;;;;;;4.53;2.38;;;;;;;20.76;100.00;101811.66;10473872;28;20096;-66
2023/08/19 18:20:07;;;;;;;5.28;2.00;;;;;;;20.62;100.00;101819.09;10456990;28;20041;-65
2023/08/19 18:25:10;;;;;;;6.80;2.75;;;;;;;20.30;100.00;101819.78;10483162;28;20127;-66
2023/08/19 18:30:11;;;;;;;5.25;2.10;;;;;;;20.13;100.00;101840.63;10480995;28;20474;-66
2023/08/19 18:35:12;;;;;;;3.83;2.03;;;;;;;19.95;100.00;101844.19;10476229;28;20049;-66
2023/08/19 18:40:14;;;;;;;3.20;1.55;;;;;;;19.75;100.00;101854.41;10472219;28;20096;-67
2023/08/19 18:45:15;;;;;;;7.05;2.10;;;;;;;19.30;100.00;101817.28;10471373;28;20034;-66
2023/08/19 18:50:15;;;;;;;6.72;2.03;;;;;;;19.38;100.00;101868.91;10476600;28;20071;-66
2023/08/19 18:55:16;;;;;;;10.95;2.42;;;;;;;19.22;100.00;101886.88;10472858;28;20611;-65
2023/08/19 19:00:16;;;;;;;8.80;2.88;;;;;;;19.03;100.00;101873.56;10461883;28;20066;-66
2023/08/19 19:05:18;;;;;;;6.53;2.42;;;;;;;18.85;100.00;101866.72;10456218;28;20121;-65
2023/08/19 19:10:18;;;;;;;8.77;2.25;;;;;;;18.84;100.00;101883.72;10464991;28;20145;-66
2023/08/19 19:15:19;;;;;;;15.10;4.63;;;;;;;18.72;100.00;101886.81;10480978;28;20228;-66
2023/08/19 19:20:20;;;;;;;7.60;1.92;;;;;;;18.61;100.00;101899.13;10468920;28;20574;-66
2023/08/19 19:25:20;;;;;;;10.05;3.30;;;;;;;18.47;100.00;101905.28;10449847;28;20033;-66
2023/08/19 19:30:22;;;;;;;9.57;3.75;;;;;;;18.30;100.00;101899.19;10467197;28;20093;-66
2023/08/19 19:35:22;;;;;;;11.82;2.63;;;;;;;18.18;100.00;101912.59;10476655;28;20396;-66
2023/08/19 19:40:23;;;;;;;10.73;2.92;;;;;;;17.88;100.00;101898.41;10485260;28;20211;-66
2023/08/19 19:45:24;;;;;;;8.25;2.75;;;;;;;17.89;100.00;101925.13;10462045;28;20028;-66
2023/08/19 19:50:24;;;;;;;10.05;2.97;;;;;;;17.75;100.00;101915.63;10470639;28;20069;-66
2023/08/19 19:55:25;;;;;;;7.78;2.70;;;;;;;17.65;100.00;101915.63;10467487;28;20037;-65
2023/08/19 20:00:26;;;;;;;6.43;2.42;;;;;;;17.54;100.00;101925.91;10471171;28;20040;-66
2023/08/19 20:05:26;;;;;;;6.85;2.30;;;;;;;17.44;100.00;101921.16;10493068;28;20087;-66
2023/08/19 20:10:27;;;;;;;13.38;4.32;;;;;;;17.35;100.00;101934.78;10479198;28;20041;-66
2023/08/19 20:15:27;;;;;;;6.78;2.80;;;;;;;17.26;100.00;101935.56;10440741;28;20042;-65
2023/08/19 20:20:27;;;;;;;6.80;2.08;;;;;;;17.13;100.00;101925.81;10441573;28;20044;-65
2023/08/19 20:25:28;;;;;;;8.00;3.03;;;;;;;17.03;100.00;101934.97;10428412;28;20044;-66
2023/08/19 20:30:28;;;;;;;9.65;2.17;;;;;;;16.98;100.00;101934.94;10438508;28;20136;-65
2023/08/19 20:35:29;;;;;;;5.82;2.85;;;;;;;16.88;100.00;101934.88;10427746;28;20041;-66
2023/08/19 20:40:31;;;;;;;12.52;3.47;;;;;;;16.70;100.00;101923.09;10409375;28;20512;-67
2023/08/19 20:45:31;;;;;;;12.70;3.63;;;;;;;16.63;100.00;101927.22;10427483;28;20052;-66
2023/08/19 20:50:32;;;;;;;5.43;2.58;;;;;;;16.51;100.00;101933.81;10440976;28;20099;-66
2023/08/19 20:55:32;;;;;;;9.48;2.75;;;;;;;16.38;100.00;101928.72;10432218;28;20033;-66
2023/08/19 21:00:33;;;;;;;10.23;2.47;;;;;;;16.31;100.00;101936.47;10417478;28;20049;-65
2023/08/19 21:05:38;;;;;;;9.32;2.50;;;;;;;16.24;100.00;101941.41;10386251;28;20363;-65
2023/08/19 21:10:39;;;;;;;5.40;2.42;;;;;;;16.11;100.00;101926.88;10412321;28;20491;-66
2023/08/19 21:15:40;;;;;;;10.90;3.20;;;;;;;16.09;100.00;101944.91;10426765;28;20281;-66
2023/08/19 21:20:42;;;;;;;10.77;2.75;;;;;;;16.01;100.00;101946.25;10409631;28;20033;-66
2023/08/19 21:25:46;;;;;;;10.48;3.22;;;;;;;15.97;100.00;101947.88;10400721;28;20041;-67
2023/08/19 21:30:54;;;;;;;9.50;2.88;;;;;;;15.91;100.00;101944.19;10451122;28;20072;-66
2023/08/19 21:35:55;;;;;;;6.35;3.28;;;;;;;15.84;100.00;101949.16;10434156;28;20029;-67
2023/08/19 21:40:55;;;;;;;11.07;4.15;;;;;;;15.79;100.00;101946.31;10410767;28;20069;-66
2023/08/19 21:45:57;;;;;;;7.78;3.13;;;;;;;15.69;100.00;101954.53;10437565;28;20064;-66
2023/08/19 21:50:57;;;;;;;13.82;4.30;;;;;;;15.62;100.00;101951.94;10414972;28;20038;-66
2023/08/19 21:55:58;;;;;;;7.90;3.78;;;;;;;15.58;100.00;101956.34;10423362;28;20041;-66
2023/08/19 22:00:58;;;;;;;12.40;4.15;;;;;;;15.54;100.00;101961.59;10405303;28;20049;-65
2023/08/19 22:05:59;;;;;;;9.38;4.18;;;;;;;15.48;100.00;101973.75;10443930;28;20040;-66
2023/08/19 22:10:59;;;;;;;11.57;5.57;;;;;;;15.40;100.00;101984.44;10393332;28;20053;-67
2023/08/19 22:16:00;;;;;;;9.65;4.07;;;;;;;15.31;100.00;101989.63;10423559;28;20470;-65
2023/08/19 22:21:01;;;;;;;9.45;4.18;;;;;;;15.26;100.00;101981.25;10470893;28;20500;-67
2023/08/19 22:26:02;;;;;;;13.05;5.15;;;;;;;15.20;100.00;101993.38;10487290;28;20037;-65
2023/08/19 22:31:07;;;;;;;11.98;4.30;;;;;;;15.14;100.00;101993.31;10483516;28;20096;-66